Aérodrome :
LOGIN :

S'inscrire | Disclaimer

   EN    FR    IT 

 










Légende :    VFR   VFR Marginal   IFR   IFR Intensif   IFR Très Intensif
Visi : 
Plafond : 
>= 8 km
>= 3000ft
5 à 8 km
1000 à 3000 ft
1500m à 5 km
500 à 1000 ft
800 à 1500m
200 à 500 ft
< 800m
< 200 ft
Symboles :   Orages  Brouillard  Fortes neiges  Fortes précipitations  Vent > 20 kt
SIGMETs :   Divers  Orages  Givrage  Turbulence  Onde Orograph.  Cendres Volcan.






- Altitude de l'aérodrome : 297 ft


EGVP - Middle Wallop

DERNIER METAR :
  • 021250Z 05009KT 4500 HZ SCT008 06/03 Q1029 BECMG 7000 FEW008 RMK GRN BECMG WHT

METARs EXPIRÉS :
  • 021220Z 04008KT 4000 HZ BKN007 05/03 Q1029 BECMG 7000 FEW010 RMK GRN BECMG WHT
  • 021150Z 03008KT 3200 HZ SCT005 OVC006 04/02 Q1029 BECMG 5000 BKN007 RMK YLO1 TEMPO GRN
  • 021140Z 04008KT 3000 HZ OVC004 04/02 Q1029 BECMG 4000 BKN005 RMK YLO2 BECMG YLO1
  • 021120Z 07009KT 2200 HZ OVC004 04/02 Q1029 BECMG 4000 BKN007 RMK YLO2 BECMG GRN
  • 021112Z 04008KT 2000 HZ OVC003 04/02 Q1029 BECMG 4000 BKN005 RMK YLO2 BECMG YLO1
  • 021050Z 03008KT 1700 HZ OVC002 03/02 Q1029 BECMG 4000 BKN005 RMK AMB BECMG YLO1
  • 021020Z 04007KT 1300 BR OVC002 03/02 Q1029 BECMG 3000 BKN004 RMK AMB BECMG YLO2

TAF TAF EGVP
Valide du 02 à 12h jusqu'au 02 à 18h UTC


021053Z 0212/0218 06008KT 4000 BR BKN005
BECMG 0212/0214 9000 HZ FEW010
PROB40 0214/0218 6000 HZ
ATIS : +44 1980 674 142



MET'MAP, la Météo Aéronautique d'un coup d'oeil ! - Copyright ORBIFLY Décembre 2007 - Disclaimer

ORBIFLY MET'MAP TEAM :

Programmation & Développement : Alexandra Zaïnal
Sur une idée originale de : Baudouin d'Aumeries
Assistance à la programmation : Marc-Olivier Méhu
Soutien technique & logistique : Manuel Goepfert

Contact : metmap@orbifly.com




SOURCES & CREDITS :

   NOAA